WetterOnline ( https://www.wetteronline.ch )

Wetter aktuell Emden

Aktuelles Wetter: Emden (5m)

6-stündlich | Neueste Meldungen
Ortszeit Temperatur Wetter
Fr, 23.08. 14:00 23.6° C leicht bewölkt
Fr, 23.08. 8:00 15.4° C wolkig
Fr, 23.08. 2:00 10.9° C leicht bewölkt
Do, 22.08. 20:00 20.7° C wolkenlos
Do, 22.08. 14:00 23.7° C leicht bewölkt
Do, 22.08. 8:00 12.5° C fast wolkenlos
Do, 22.08. 2:00 11.8° C wolkig
Mi, 21.08. 20:00 19.7° C leicht bewölkt
Ortszeit Temperatur Wetter
Fr, 23.08. 17:30 23.6° C wolkig
Fr, 23.08. 17:20 23.6° C wolkig
Fr, 23.08. 17:10 23.9° C wolkig
Fr, 23.08. 17:00 24.4° C wolkig
Fr, 23.08. 16:50 24.4° C wolkig
Fr, 23.08. 16:40 24.3° C wolkig
Fr, 23.08. 16:30 23.7° C wolkig
Fr, 23.08. 16:00 23.9° C bewölkt
Fr, 23.08. 15:30 24.2° C bedeckt
Fr, 23.08. 15:00 24.2° C bewölkt
Fr, 23.08. 14:30 23.8° C wolkig
Ortszeit Relative Feuchte Sichtweite
Fr, 23.08. 14:00 56% 60 km
Fr, 23.08. 8:00 76% 35 km
Fr, 23.08. 2:00 92% 50 km
Do, 22.08. 20:00 68% 60 km
Do, 22.08. 14:00 43% 60 km
Do, 22.08. 8:00 82% 35 km
Do, 22.08. 2:00 92% 28 km
Mi, 21.08. 20:00 56% 60 km
Ortszeit Relative Feuchte Sichtweite
Fr, 23.08. 17:30 61% 60 km
Fr, 23.08. 17:20 61% -
Fr, 23.08. 17:10 57% -
Fr, 23.08. 17:00 58% 55 km
Fr, 23.08. 16:50 58% -
Fr, 23.08. 16:40 58% -
Fr, 23.08. 16:30 61% 55 km
Fr, 23.08. 16:00 55% 65 km
Fr, 23.08. 15:30 54% 60 km
Fr, 23.08. 15:00 55% 55 km
Fr, 23.08. 14:30 56% 50 km
Ortszeit Niederschlagsmenge Niederschlagsart
Fr, 23.08. 14:00 0.0 l/m2 in 6 Std. -
Fr, 23.08. 8:00 0.0 l/m2 in 12 Std. -
Fr, 23.08. 2:00 0.0 l/m2 in 6 Std. -
Do, 22.08. 20:00 0.0 l/m2 in 12 Std. -
Do, 22.08. 14:00 0.0 l/m2 in 6 Std. -
Do, 22.08. 8:00 0.0 l/m2 in 12 Std. -
Do, 22.08. 2:00 0.0 l/m2 in 6 Std. -
Mi, 21.08. 20:00 0.0 l/m2 in 12 Std. -
Ortszeit Niederschlagsmenge Niederschlagsart
Fr, 23.08. 17:30 0.0 l/m2 in 1 Std. -
Fr, 23.08. 17:20 keine Meldung -
Fr, 23.08. 17:10 keine Meldung -
Fr, 23.08. 17:00 0.0 l/m2 in 1 Std. -
Fr, 23.08. 16:50 keine Meldung -
Fr, 23.08. 16:40 keine Meldung -
Fr, 23.08. 16:30 0.0 l/m2 in 1 Std. -
Fr, 23.08. 16:00 0.0 l/m2 in 1 Std. -
Fr, 23.08. 15:30 0.0 l/m2 in 1 Std. -
Fr, 23.08. 15:00 0.0 l/m2 in 1 Std. -
Fr, 23.08. 14:30 0.0 l/m2 in 1 Std. -
Ortszeit Stärke Spitze Richtung
km/h Bft. km/h Grad Sektor
Fr, 23.08. 14:00 7 2 22 210° SW
Fr, 23.08. 8:00 11 2 14 210° SW
Fr, 23.08. 2:00 0 0 14 - -
Do, 22.08. 20:00 6 1 33 320° NW
Do, 22.08. 14:00 17 3 33 210° SW
Do, 22.08. 8:00 11 2 14 140° SO
Do, 22.08. 2:00 7 2 11 140° SO
Mi, 21.08. 20:00 4 1 25 310° NW
Ortszeit Stärke Spitze Richtung
km/h Bft. km/h Grad Sektor
Fr, 23.08. 17:30 4 1 11 40° NO
Fr, 23.08. 17:20 4 1 - 40° NO
Fr, 23.08. 17:10 4 1 - 320° NW
Fr, 23.08. 17:00 7 2 18 320° NW
Fr, 23.08. 16:50 7 2 - 320° NW
Fr, 23.08. 16:40 7 2 - 350° N
Fr, 23.08. 16:30 11 2 18 320° NW
Fr, 23.08. 16:00 4 1 14 310° NW
Fr, 23.08. 15:30 4 1 14 330° NW
Fr, 23.08. 15:00 7 2 19 340° N
Fr, 23.08. 14:30 11 2 18 190° S
Ortszeit Untergrenze Bedeckung Gattung
total tief tief mittel hoch
Fr, 23.08. 14:00 1110 m 8/8 1/8 - - -
Fr, 23.08. 8:00 8100 m 8/8 0/8 - - -
Fr, 23.08. 2:00 9000 m 5/8 0/8 - - -
Do, 22.08. 20:00 - 0/8 0/8 - - -
Do, 22.08. 14:00 10500 m 4/8 0/8 - - -
Do, 22.08. 8:00 8100 m 1/8 0/8 - - -
Do, 22.08. 2:00 8400 m 8/8 0/8 - - -
Mi, 21.08. 20:00 1500 m 3/8 1/8 - - -
Ortszeit Bedeckungsgrad in Achtel und Wolkenuntergrenze
Fr, 23.08. 17:30 6(9000m) 8(9000m)
Fr, 23.08. 17:20 6(9000m) 8(9000m)
Fr, 23.08. 17:10 4(9000m) 5(9000m) 8(10500m)
Fr, 23.08. 17:00 2(9000m) 7(10500m)
Fr, 23.08. 16:50 2(9000m) 7(10500m)
Fr, 23.08. 16:40 1(9000m) 4(9000m) 7(10500m)
Fr, 23.08. 16:30 2(1350m) 7(9000m)
Fr, 23.08. 16:00 7(1290m) 7(9000m)
Fr, 23.08. 15:30 8(1230m)
Fr, 23.08. 15:00 7(1200m) 7(8700m) 7(10500m)
Fr, 23.08. 14:30 2(1140m) 7(9000m) 8(10500m)
Ortszeit Luftdruck NN (hPa) Tendenz (hPa in 3 Std.)
Fr, 23.08. 14:00 1026 - 0,3
Fr, 23.08. 8:00 1026 + 0,4
Fr, 23.08. 2:00 1025 + 0,3
Do, 22.08. 20:00 1024 + 0,4
Do, 22.08. 14:00 1024 - 0,8
Do, 22.08. 8:00 1025 - 0,7
Do, 22.08. 2:00 1027 - 0,5
Mi, 21.08. 20:00 1027 - 0,4
Ortszeit Luftdruck NN (hPa) Tendenz (hPa in 3 Std.)
Fr, 23.08. 17:30 1025 - 0,6
Fr, 23.08. 17:20 1025 keine Meldung
Fr, 23.08. 17:10 1025 keine Meldung
Fr, 23.08. 17:00 1026 - 0,6
Fr, 23.08. 16:50 1026 keine Meldung
Fr, 23.08. 16:40 1026 keine Meldung
Fr, 23.08. 16:30 1026 - 0,5
Fr, 23.08. 16:00 1026 - 0,5
Fr, 23.08. 15:30 1026 - 0,6
Fr, 23.08. 15:00 1026 - 0,6
Fr, 23.08. 14:30 1026 - 0,5
Ortszeit Schneehöhe (cm)
Fr, 23.08. 14:00 -
Fr, 23.08. 8:00 -
Fr, 23.08. 2:00 -
Do, 22.08. 20:00 -
Do, 22.08. 14:00 -
Do, 22.08. 8:00 -
Do, 22.08. 2:00 -
Mi, 21.08. 20:00 -
Ortszeit Schneehöhe (cm)
Fr, 23.08. 17:30 -
Fr, 23.08. 17:20 -
Fr, 23.08. 17:10 -
Fr, 23.08. 17:00 -
Fr, 23.08. 16:50 -
Fr, 23.08. 16:40 -
Fr, 23.08. 16:30 -
Fr, 23.08. 16:00 -
Fr, 23.08. 15:30 -
Fr, 23.08. 15:00 -
Fr, 23.08. 14:30 -
Link zu dieser Seite / Seite empfehlen

Das Wetter in ...